createdAt,value
2022-09-04T00:00:29.738Z,98451.56
2022-09-04T00:03:49.865Z,98443.19
2022-09-04T00:07:06.800Z,98447.97
2022-09-04T00:10:38.100Z,98442.09
2022-09-04T00:14:01.637Z,98439.13
2022-09-04T00:17:11.774Z,98438.47
2022-09-04T00:20:27.154Z,98446.06
2022-09-04T00:23:50.698Z,98442.25
2022-09-04T00:27:07.491Z,98444.84
2022-09-04T00:30:16.186Z,98443.19
2022-09-04T00:33:26.591Z,98447.25
2022-09-04T00:36:28.721Z,98450.94
2022-09-04T00:39:45.352Z,98446.50
2022-09-04T00:43:24.515Z,98450.47
2022-09-04T00:46:45.307Z,98447.16
2022-09-04T00:50:11.947Z,98447.97
2022-09-04T00:53:37.437Z,98449.47
2022-09-04T00:57:19.957Z,98449.81
2022-09-04T01:00:22.827Z,98450.38
2022-09-04T01:03:56.163Z,98449.19
2022-09-04T01:07:09.988Z,98446.75
2022-09-04T01:10:34.476Z,98451.56
2022-09-04T01:13:51.872Z,98453.75
2022-09-04T01:17:23.214Z,98456.16
2022-09-04T01:20:55.659Z,98457.09
2022-09-04T01:24:19.935Z,98454.69
2022-09-04T01:27:42.215Z,98455.13
2022-09-04T01:31:09.331Z,98456.09
2022-09-04T01:34:31.000Z,98455.50
2022-09-04T01:38:17.938Z,98454.94
2022-09-04T01:41:37.690Z,98447.91
2022-09-04T01:44:40.920Z,98453.84
2022-09-04T01:47:49.507Z,98455.28
2022-09-04T01:50:53.964Z,98456.72
2022-09-04T01:54:27.492Z,98459.56
2022-09-04T01:58:07.084Z,98455.41
2022-09-04T02:01:52.679Z,98460.03
2022-09-04T02:05:17.731Z,98455.84
2022-09-04T02:09:00.246Z,98456.28
2022-09-04T02:12:37.975Z,98455.97
2022-09-04T02:16:04.996Z,98454.59
2022-09-04T02:19:39.194Z,98447.66
2022-09-04T02:22:45.122Z,98456.66
2022-09-04T02:26:34.390Z,98459.47
2022-09-04T02:30:10.606Z,98465.63
2022-09-04T02:33:20.580Z,98467.09
2022-09-04T02:36:50.206Z,98464.22
2022-09-04T02:40:13.622Z,98466.69
2022-09-04T02:43:48.513Z,98467.06
2022-09-04T02:47:12.534Z,98463.53
2022-09-04T02:50:49.891Z,98454.84
2022-09-04T02:54:30.143Z,98456.69
2022-09-04T02:57:56.617Z,98453.50
2022-09-04T03:01:22.319Z,98452.47
2022-09-04T03:04:50.081Z,98458.69
2022-09-04T03:08:08.355Z,98470.56
2022-09-04T03:11:29.707Z,98473.97
2022-09-04T03:14:58.367Z,98469.34
2022-09-04T03:18:24.500Z,98466.22
2022-09-04T03:22:20.528Z,98470.66
2022-09-04T03:25:57.812Z,98472.19
2022-09-04T03:29:17.090Z,98478.47
2022-09-04T03:32:26.563Z,98485.25
2022-09-04T03:36:01.130Z,98480.34
2022-09-04T03:39:27.470Z,98474.09
2022-09-04T03:43:03.339Z,98472.78
2022-09-04T03:46:39.078Z,98481.50
2022-09-04T03:49:56.149Z,98483.53
2022-09-04T03:53:19.752Z,98481.56
2022-09-04T03:56:44.202Z,98482.06
2022-09-04T04:00:13.411Z,98482.41
2022-09-04T04:03:37.089Z,98490.66
2022-09-04T04:07:01.613Z,98489.09
2022-09-04T04:10:45.334Z,98491.16
2022-09-04T04:14:08.986Z,98490.28
2022-09-04T04:17:41.770Z,98495.63
2022-09-04T04:20:45.573Z,98496.75
2022-09-04T04:24:39.296Z,98493.41
2022-09-04T04:28:25.583Z,98494.38
2022-09-04T04:31:38.236Z,98494.16
2022-09-04T04:34:43.987Z,98497.34
2022-09-04T04:38:13.022Z,98493.03
2022-09-04T04:41:53.465Z,98491.25
2022-09-04T04:45:40.811Z,98502.56
2022-09-04T04:49:13.885Z,98500.13
2022-09-04T04:52:18.633Z,98501.19
2022-09-04T04:56:15.324Z,98508.69
2022-09-04T04:59:44.160Z,98507.44
2022-09-04T05:03:06.850Z,98514.97
2022-09-04T05:06:21.931Z,98512.78
2022-09-04T05:09:57.974Z,98512.78
2022-09-04T05:14:02.566Z,98519.47
2022-09-04T05:17:14.461Z,98534.09
2022-09-04T05:21:02.568Z,98524.59
2022-09-04T05:24:20.882Z,98529.16
2022-09-04T05:27:22.923Z,98530.25
2022-09-04T05:30:43.422Z,98528.34
2022-09-04T05:34:27.785Z,98538.03
2022-09-04T05:38:32.031Z,98541.53
2022-09-04T05:42:06.953Z,98545.00
2022-09-04T05:45:49.363Z,98554.84
2022-09-04T05:49:09.366Z,98563.16
2022-09-04T05:52:43.348Z,98557.75
2022-09-04T05:56:13.276Z,98564.22
2022-09-04T05:59:35.618Z,98564.50
2022-09-04T06:03:25.105Z,98565.81
2022-09-04T06:07:06.885Z,98574.63
2022-09-04T06:10:39.918Z,98579.78
2022-09-04T06:14:10.219Z,98584.38
2022-09-04T06:17:18.428Z,98585.09
2022-09-04T06:21:04.504Z,98587.56
2022-09-04T06:24:39.756Z,98592.38
2022-09-04T06:28:26.779Z,98592.66
2022-09-04T06:31:43.723Z,98587.81
2022-09-04T06:35:54.879Z,98584.34
2022-09-04T06:39:16.445Z,98596.56
2022-09-04T06:42:41.386Z,98592.28
2022-09-04T06:46:02.155Z,98597.03
2022-09-04T06:49:43.842Z,98596.81
2022-09-04T06:52:59.138Z,98601.59
2022-09-04T06:56:21.352Z,98609.81
2022-09-04T06:59:35.807Z,98628.34
2022-09-04T07:02:59.607Z,98624.66
2022-09-04T07:06:22.306Z,98637.47
2022-09-04T07:09:49.069Z,98645.78
2022-09-04T07:13:19.361Z,98651.94
2022-09-04T07:16:56.759Z,98647.41
2022-09-04T07:20:15.572Z,98656.53
2022-09-04T07:23:26.884Z,98651.19
2022-09-04T07:27:07.875Z,98654.09
2022-09-04T07:30:17.341Z,98658.09
2022-09-04T07:34:11.182Z,98662.38
2022-09-04T07:37:48.270Z,98652.28
2022-09-04T07:40:58.910Z,98658.06
2022-09-04T07:44:47.547Z,98673.78
2022-09-04T07:48:05.702Z,98670.13
2022-09-04T07:51:16.142Z,98674.16
2022-09-04T07:54:56.538Z,98678.69
2022-09-04T07:58:37.400Z,98670.41
2022-09-04T08:02:03.958Z,98663.72
2022-09-04T08:05:48.324Z,98653.97
2022-09-04T08:08:59.068Z,98654.34
2022-09-04T08:12:21.987Z,98650.88
2022-09-04T08:15:43.244Z,98644.00
2022-09-04T08:19:15.800Z,98659.38
2022-09-04T08:22:36.462Z,98648.38
2022-09-04T08:26:14.317Z,98651.59
2022-09-04T08:29:22.584Z,98642.69
2022-09-04T08:32:49.582Z,98646.03
2022-09-04T08:36:01.996Z,98648.09
2022-09-04T08:39:09.867Z,98655.94
2022-09-04T08:42:50.035Z,98644.22
2022-09-04T08:46:29.053Z,98664.91
2022-09-04T08:50:06.034Z,98663.63
2022-09-04T08:53:26.644Z,98669.16
2022-09-04T08:57:02.915Z,98680.88
2022-09-04T09:00:20.792Z,98679.72
2022-09-04T09:04:22.856Z,98684.47
2022-09-04T09:07:58.537Z,98703.53
2022-09-04T09:11:06.316Z,98709.44
2022-09-04T09:15:01.027Z,98707.53
2022-09-04T09:18:40.569Z,98707.31
2022-09-04T09:22:20.663Z,98702.78
2022-09-04T09:25:25.423Z,98692.63
2022-09-04T09:29:23.489Z,98707.75
2022-09-04T09:33:05.803Z,98717.13
2022-09-04T09:36:14.862Z,98705.59
2022-09-04T09:39:44.669Z,98707.34
2022-09-04T09:43:24.496Z,98707.09
2022-09-04T09:47:23.607Z,98717.56
2022-09-04T09:50:40.709Z,98702.94
2022-09-04T09:54:23.441Z,98706.22
2022-09-04T09:57:53.484Z,98703.41
2022-09-04T10:01:25.510Z,98719.69
2022-09-04T10:05:14.965Z,98712.72
2022-09-04T10:08:36.011Z,98717.19
2022-09-04T10:12:02.867Z,98710.47
2022-09-04T10:15:46.560Z,98717.69
2022-09-04T10:19:39.456Z,98712.00
2022-09-04T10:23:04.105Z,98718.81
2022-09-04T10:26:39.288Z,98718.16
2022-09-04T10:29:48.830Z,98736.06
2022-09-04T10:33:18.815Z,98730.34
2022-09-04T10:36:20.949Z,98720.19
2022-09-04T10:40:01.427Z,98723.41
2022-09-04T10:43:22.401Z,98721.41
2022-09-04T10:46:27.847Z,98707.63
2022-09-04T10:50:07.970Z,98712.91
2022-09-04T10:53:41.767Z,98696.81
2022-09-04T10:57:37.373Z,98702.06
2022-09-04T11:01:21.499Z,98698.84
2022-09-04T11:05:07.078Z,98702.00
2022-09-04T11:08:20.297Z,98697.09
2022-09-04T11:11:40.651Z,98698.00
2022-09-04T11:15:32.523Z,98699.88
2022-09-04T11:18:46.482Z,98706.34
2022-09-04T11:22:43.151Z,98712.09
2022-09-04T11:26:19.119Z,98716.91
2022-09-04T11:29:58.647Z,98722.28
2022-09-04T11:33:18.802Z,98730.31
2022-09-04T11:36:29.724Z,98728.22
2022-09-04T11:39:52.864Z,98724.56
2022-09-04T11:43:31.541Z,98725.75
2022-09-04T11:47:15.200Z,98726.50
2022-09-04T11:50:56.494Z,98721.19
2022-09-04T11:54:24.131Z,98731.34
2022-09-04T11:57:44.100Z,98730.09
2022-09-04T12:01:04.228Z,98740.03
2022-09-04T12:04:37.656Z,98742.16
2022-09-04T12:08:26.178Z,98739.88
2022-09-04T12:11:46.895Z,98732.38
2022-09-04T12:15:07.293Z,98744.72
2022-09-04T12:19:01.337Z,98764.28
2022-09-04T12:22:51.812Z,98767.56
2022-09-04T12:26:24.946Z,98769.47
2022-09-04T12:30:00.010Z,98766.63
2022-09-04T12:33:19.900Z,98778.13
2022-09-04T12:36:52.080Z,98785.94
2022-09-04T12:40:30.410Z,98785.88
2022-09-04T12:44:11.819Z,98781.94
2022-09-04T12:47:25.859Z,98783.22
2022-09-04T12:51:14.853Z,98786.97
2022-09-04T12:55:04.138Z,98784.00
2022-09-04T12:58:18.248Z,98789.31
2022-09-04T13:01:49.726Z,98792.03
2022-09-04T13:05:49.791Z,98795.88
2022-09-04T13:09:04.969Z,98793.78
2022-09-04T13:12:44.389Z,98794.88
2022-09-04T13:16:08.946Z,98795.38
2022-09-04T13:20:09.179Z,98794.31
2022-09-04T13:24:01.629Z,98782.03
2022-09-04T13:27:26.404Z,98791.81
2022-09-04T13:30:29.020Z,98791.41
2022-09-04T13:33:58.254Z,98797.69
2022-09-04T13:37:27.611Z,98797.09
2022-09-04T13:40:44.954Z,98808.09
2022-09-04T13:44:16.309Z,98804.59
2022-09-04T13:47:32.799Z,98809.16
2022-09-04T13:50:40.339Z,98803.38
2022-09-04T13:54:16.915Z,98802.38
2022-09-04T13:57:21.750Z,98797.38
2022-09-04T14:00:28.794Z,98795.50
2022-09-04T14:03:33.759Z,98796.91
2022-09-04T14:06:35.842Z,98799.28
2022-09-04T14:09:44.349Z,98798.69
2022-09-04T14:13:24.315Z,98798.78
2022-09-04T14:16:26.458Z,98797.91
2022-09-04T14:19:51.408Z,98801.59
2022-09-04T14:23:12.513Z,98800.88
2022-09-04T14:26:39.535Z,98801.19
2022-09-04T14:30:15.140Z,98794.41
2022-09-04T14:33:29.224Z,98801.19
2022-09-04T14:37:24.086Z,98792.47
2022-09-04T14:40:45.937Z,98796.47
2022-09-04T14:44:03.765Z,98806.66
2022-09-04T14:47:26.086Z,98799.56
2022-09-04T14:50:29.463Z,98798.09
2022-09-04T14:53:33.748Z,98802.09
2022-09-04T14:56:58.341Z,98805.19
2022-09-04T15:00:19.139Z,98813.66
2022-09-04T15:03:25.696Z,98816.63
2022-09-04T15:07:09.834Z,98823.66
2022-09-04T15:10:32.991Z,98813.50
2022-09-04T15:13:54.816Z,98827.72
2022-09-04T15:17:03.535Z,98813.84
2022-09-04T15:20:10.100Z,98796.25
2022-09-04T15:24:02.129Z,98795.16
2022-09-04T15:27:28.520Z,98792.78
2022-09-04T15:30:38.733Z,98793.31
2022-09-04T15:33:43.059Z,98782.59
2022-09-04T15:36:45.214Z,98783.03
2022-09-04T15:40:10.931Z,98777.50
2022-09-04T15:43:16.011Z,98772.38
2022-09-04T15:46:33.237Z,98779.22
2022-09-04T15:49:50.534Z,98769.41
2022-09-04T15:53:25.109Z,98767.66
2022-09-04T15:56:34.973Z,98777.44
2022-09-04T15:59:49.815Z,98781.09
2022-09-04T16:03:15.549Z,98770.41
2022-09-04T16:06:30.141Z,98770.06
2022-09-04T16:10:25.882Z,98783.81
2022-09-04T16:13:28.937Z,98788.91
2022-09-04T16:16:44.529Z,98776.56
2022-09-04T16:20:24.172Z,98779.72
2022-09-04T16:23:35.327Z,98778.16
2022-09-04T16:26:37.391Z,98779.19
2022-09-04T16:30:09.974Z,98776.19
2022-09-04T16:33:32.251Z,98771.94
2022-09-04T16:36:48.338Z,98754.16
2022-09-04T16:40:21.795Z,98751.72
2022-09-04T16:43:28.876Z,98766.66
2022-09-04T16:46:32.466Z,98766.19
2022-09-04T16:49:55.196Z,98765.63
2022-09-04T16:53:17.487Z,98759.22
2022-09-04T16:56:36.443Z,98763.56
2022-09-04T16:59:50.983Z,98771.09
2022-09-04T17:03:02.713Z,98769.97
2022-09-04T17:06:18.291Z,98770.75
2022-09-04T17:09:42.245Z,98787.94
2022-09-04T17:13:15.188Z,98787.75
2022-09-04T17:16:52.713Z,98791.41
2022-09-04T17:20:12.326Z,98792.59
2022-09-04T17:29:01.004Z,98795.16
2022-09-04T17:29:08.636Z,98800.53
2022-09-04T17:30:51.509Z,98800.00
2022-09-04T17:40:36.759Z,98808.56
2022-09-04T17:40:44.351Z,98796.84
2022-09-04T17:41:31.321Z,98810.69
2022-09-04T17:45:04.036Z,98813.69
2022-09-04T17:48:12.009Z,98812.03
2022-09-04T17:51:27.845Z,98814.16
2022-09-04T17:54:32.355Z,98819.81
2022-09-04T17:57:51.872Z,98820.88
2022-09-04T18:01:15.222Z,98821.28
2022-09-04T18:04:32.646Z,98819.28
2022-09-04T18:08:09.226Z,98815.69
2022-09-04T18:11:36.114Z,98813.75
2022-09-04T18:15:25.221Z,98807.59
2022-09-04T18:18:36.844Z,98810.13
2022-09-04T18:22:07.793Z,98808.69
2022-09-04T18:25:26.937Z,98814.47
2022-09-04T18:28:52.185Z,98807.13
2022-09-04T18:37:11.681Z,98806.75
2022-09-04T18:37:25.848Z,98808.88
2022-09-04T18:39:37.744Z,98808.19
2022-09-04T18:50:25.015Z,98809.28
2022-09-04T18:50:42.794Z,98824.47
2022-09-04T18:50:45.240Z,98820.16
2022-09-04T18:53:29.615Z,98836.91
2022-09-04T18:56:54.231Z,98841.09
2022-09-04T19:00:10.122Z,98839.41
2022-09-04T19:04:18.584Z,98836.47
2022-09-04T19:07:42.661Z,98848.38
2022-09-04T19:10:55.228Z,98845.44
2022-09-04T19:14:21.631Z,98845.16
2022-09-04T19:17:29.328Z,98848.47
2022-09-04T19:20:38.531Z,98854.88
2022-09-04T19:24:24.599Z,98846.78
2022-09-04T19:27:38.703Z,98845.59
2022-09-04T19:30:53.410Z,98849.34
2022-09-04T19:34:23.542Z,98852.63
2022-09-04T19:42:06.060Z,98857.19
2022-09-04T19:45:56.906Z,98849.44
2022-09-04T19:46:18.773Z,98847.41
2022-09-04T19:52:41.625Z,98844.75
2022-09-04T19:53:33.790Z,98847.91
2022-09-04T19:56:28.880Z,98855.63
2022-09-04T19:59:44.804Z,98855.19
2022-09-04T20:03:37.321Z,98863.56
2022-09-04T20:06:51.174Z,98868.34
2022-09-04T20:09:56.136Z,98871.69
2022-09-04T20:13:32.479Z,98876.59
2022-09-04T20:16:52.944Z,98878.53
2022-09-04T20:20:03.208Z,98880.41
2022-09-04T20:23:33.833Z,98878.09
2022-09-04T20:26:51.811Z,98878.22
2022-09-04T20:30:11.970Z,98889.13
2022-09-04T20:33:20.366Z,98886.06
2022-09-04T20:36:32.691Z,98874.41
2022-09-04T20:39:41.878Z,98881.94
2022-09-04T20:43:03.485Z,98879.31
2022-09-04T20:52:42.059Z,98881.00
2022-09-04T20:53:06.686Z,98878.88
2022-09-04T20:54:29.339Z,98882.06
2022-09-04T21:03:05.241Z,98884.31
2022-09-04T21:03:18.287Z,98880.72
2022-09-04T21:05:23.635Z,98876.47
2022-09-04T21:09:22.690Z,98872.41
2022-09-04T21:12:35.240Z,98877.00
2022-09-04T21:15:46.279Z,98871.44
2022-09-04T21:19:27.488Z,98872.09
2022-09-04T21:22:52.231Z,98872.44
2022-09-04T21:26:18.326Z,98870.50
2022-09-04T21:29:41.434Z,98876.31
2022-09-04T21:33:27.287Z,98873.00
2022-09-04T21:36:41.421Z,98869.41
2022-09-04T21:40:52.757Z,98870.84
2022-09-04T21:44:28.415Z,98863.47
2022-09-04T21:48:05.132Z,98872.53
2022-09-04T21:52:13.771Z,98874.56
2022-09-04T22:02:26.037Z,98873.13
2022-09-04T22:02:38.283Z,98872.91
2022-09-04T22:03:22.719Z,98867.34
2022-09-04T22:10:21.686Z,98870.47
2022-09-04T22:13:39.703Z,98872.50
2022-09-04T22:15:05.562Z,98874.47
2022-09-04T22:18:31.565Z,98872.41
2022-09-04T22:21:47.139Z,98872.50
2022-09-04T22:25:10.659Z,98871.03
2022-09-04T22:28:57.706Z,98882.66
2022-09-04T22:32:20.438Z,98880.91
2022-09-04T22:36:13.590Z,98872.97
2022-09-04T22:39:40.426Z,98874.03
2022-09-04T22:42:51.775Z,98867.97
2022-09-04T22:46:12.876Z,98871.97
2022-09-04T22:49:47.395Z,98869.53
2022-09-04T22:53:40.451Z,98855.91
2022-09-04T22:56:57.263Z,98860.13
2022-09-04T23:00:22.173Z,98855.75
2022-09-04T23:04:03.938Z,98856.78
2022-09-04T23:12:09.481Z,98853.94
2022-09-04T23:13:47.940Z,98853.63
2022-09-04T23:14:24.118Z,98846.78
2022-09-04T23:17:57.474Z,98846.25
2022-09-04T23:26:37.748Z,98846.94
2022-09-04T23:26:43.387Z,98839.34
2022-09-04T23:28:48.287Z,98833.97
2022-09-04T23:32:18.099Z,98832.44
2022-09-04T23:36:21.536Z,98823.97
2022-09-04T23:39:50.640Z,98825.34
2022-09-04T23:44:02.512Z,98822.06
2022-09-04T23:47:48.459Z,98828.50
2022-09-04T23:50:50.319Z,98829.88
2022-09-04T23:54:36.752Z,98823.13
2022-09-04T23:57:52.789Z,98816.63
